TimeCST,TemperatureF,Dew PointF,Humidity,Sea Level PressureIn,VisibilityMPH,Wind Direction,Wind SpeedMPH,Gust SpeedMPH,PrecipitationIn,Events,Conditions,WindDirDegrees,DateUTC
12:55 AM,51.6,47.3,85,30.27,10.0,North,11.5,20.7,N/A,,Overcast,350,2012-11-13 06:55:00
1:39 AM,50.0,46.4,87,30.26,10.0,North,15.0,-,N/A,,Overcast,350,2012-11-13 07:39:00
1:55 AM,50.2,45.7,85,30.26,10.0,North,12.7,20.7,N/A,,Overcast,360,2012-11-13 07:55:00
2:55 AM,48.9,44.1,83,30.27,10.0,North,13.8,-,N/A,,Overcast,360,2012-11-13 08:55:00
3:15 AM,48.2,42.8,82,30.27,10.0,North,15.0,20.7,N/A,,Overcast,360,2012-11-13 09:15:00
3:44 AM,48.2,41.0,76,30.27,10.0,North,13.8,-,N/A,,Overcast,350,2012-11-13 09:44:00
3:55 AM,48.0,41.9,79,30.27,10.0,North,12.7,-,N/A,,Overcast,350,2012-11-13 09:55:00
4:30 AM,46.4,39.2,76,30.28,10.0,North,17.3,-,N/A,,Overcast,350,2012-11-13 10:30:00
4:55 AM,46.4,38.8,75,30.28,10.0,North,15.0,23.0,N/A,,Overcast,350,2012-11-13 10:55:00
5:55 AM,43.2,37.0,79,30.30,10.0,North,13.8,-,N/A,,Clear,350,2012-11-13 11:55:00
6:55 AM,41.9,35.6,78,30.32,10.0,North,13.8,23.0,N/A,,Clear,350,2012-11-13 12:55:00
7:55 AM,44.4,34.7,69,30.34,10.0,North,13.8,24.2,N/A,,Clear,360,2012-11-13 13:55:00
8:55 AM,48.2,33.8,58,30.33,10.0,North,12.7,19.6,N/A,,Partly Cloudy,350,2012-11-13 14:55:00
9:55 AM,51.4,32.5,49,30.32,10.0,NNW,12.7,-,N/A,,Partly Cloudy,340,2012-11-13 15:55:00
10:55 AM,55.2,32.0,41,30.30,10.0,North,13.8,-,N/A,,Partly Cloudy,360,2012-11-13 16:55:00
11:55 AM,58.8,31.3,35,30.27,10.0,North,11.5,-,N/A,,Partly Cloudy,10,2012-11-13 17:55:00
12:55 PM,60.8,31.6,33,30.24,10.0,NNW,12.7,-,N/A,,Partly Cloudy,340,2012-11-13 18:55:00
1:55 PM,62.8,31.1,30,30.22,10.0,NNW,12.7,-,N/A,,Partly Cloudy,340,2012-11-13 19:55:00
2:55 PM,62.1,32.7,33,30.21,10.0,North,10.4,-,N/A,,Partly Cloudy,350,2012-11-13 20:55:00
3:55 PM,60.8,33.8,36,30.22,10.0,North,11.5,-,N/A,,Partly Cloudy,350,2012-11-13 21:55:00
4:55 PM,54.1,35.6,50,30.22,10.0,North,6.9,-,N/A,,Partly Cloudy,350,2012-11-13 22:55:00
5:55 PM,49.8,34.7,56,30.24,10.0,NNW,6.9,-,N/A,,Partly Cloudy,330,2012-11-13 23:55:00
6:55 PM,46.6,35.1,64,30.26,10.0,NNW,5.8,-,N/A,,Scattered Clouds,340,2012-11-14 00:55:00
7:55 PM,43.3,35.6,74,30.27,10.0,North,4.6,-,N/A,,Scattered Clouds,350,2012-11-14 01:55:00
8:55 PM,43.5,34.0,69,30.27,10.0,North,4.6,-,N/A,,Mostly Cloudy,350,2012-11-14 02:55:00
9:55 PM,39.7,34.5,82,30.27,10.0,NNW,5.8,-,N/A,,Mostly Cloudy,340,2012-11-14 03:55:00
10:55 PM,38.8,33.4,81,30.25,10.0,North,6.9,-,N/A,,Mostly Cloudy,10,2012-11-14 04:55:00
11:55 PM,40.5,32.9,74,30.24,10.0,North,5.8,-,N/A,,Mostly Cloudy,350,2012-11-14 05:55:00